createdAt,value
2022-10-17T00:03:15.445Z,15.42
2022-10-17T00:08:39.490Z,15.29
2022-10-17T00:18:31.817Z,15.24
2022-10-17T00:23:31.766Z,15.15
2022-10-17T00:28:31.713Z,15.06
2022-10-17T00:33:31.629Z,15.00
2022-10-17T00:38:31.550Z,15.00
2022-10-17T00:43:31.478Z,15.02
2022-10-17T00:48:31.428Z,14.94
2022-10-17T00:53:32.162Z,14.88
2022-10-17T00:58:31.278Z,14.82
2022-10-17T01:03:31.226Z,14.72
2022-10-17T01:08:31.142Z,14.62
2022-10-17T01:13:31.074Z,14.65
2022-10-17T01:18:31.014Z,14.63
2022-10-17T01:23:30.947Z,14.59
2022-10-17T01:28:30.964Z,14.58
2022-10-17T01:33:30.818Z,14.54
2022-10-17T01:38:30.733Z,14.51
2022-10-17T01:43:30.663Z,14.47
2022-10-17T01:48:30.600Z,14.45
2022-10-17T01:53:30.541Z,14.35
2022-10-17T01:58:30.834Z,14.30
2022-10-17T02:03:30.406Z,14.30
2022-10-17T02:08:30.326Z,14.33
2022-10-17T02:13:30.270Z,14.40
2022-10-17T02:18:30.194Z,14.40
2022-10-17T02:23:30.138Z,14.36
2022-10-17T02:28:30.142Z,14.45
2022-10-17T02:33:29.991Z,14.44
2022-10-17T02:38:29.921Z,14.40
2022-10-17T02:43:29.865Z,14.36
2022-10-17T02:48:30.208Z,14.29
2022-10-17T02:53:29.727Z,14.26
2022-10-17T02:58:29.676Z,14.22
2022-10-17T03:03:29.594Z,14.25
2022-10-17T03:08:29.599Z,14.22
2022-10-17T03:13:29.470Z,14.23
2022-10-17T03:18:29.398Z,14.22
2022-10-17T03:23:29.327Z,14.18
2022-10-17T03:28:29.280Z,14.20
2022-10-17T03:33:29.192Z,14.17
2022-10-17T03:38:29.121Z,14.18
2022-10-17T03:43:29.033Z,14.14
2022-10-17T03:48:29.005Z,14.10
2022-10-17T03:53:28.965Z,14.17
2022-10-17T03:58:28.828Z,14.17
2022-10-17T04:03:28.838Z,14.17
2022-10-17T04:08:28.738Z,14.11
2022-10-17T04:13:28.659Z,14.03
2022-10-17T04:18:38.248Z,13.90
2022-10-17T04:23:30.672Z,13.90
2022-10-17T04:28:30.664Z,13.89
2022-10-17T04:33:30.512Z,13.90
2022-10-17T04:38:30.455Z,13.87
2022-10-17T04:43:30.378Z,13.86
2022-10-17T04:48:30.318Z,13.83
2022-10-17T04:53:30.244Z,13.75
2022-10-17T04:58:30.178Z,13.67
2022-10-17T05:03:30.113Z,13.60
2022-10-17T05:08:30.048Z,13.57
2022-10-17T05:13:29.976Z,13.56
2022-10-17T05:18:30.284Z,13.54
2022-10-17T05:23:29.839Z,13.50
2022-10-17T05:28:29.809Z,13.60
2022-10-17T05:33:29.687Z,13.59
2022-10-17T05:38:29.649Z,13.63
2022-10-17T05:43:29.569Z,13.65
2022-10-17T05:48:29.547Z,13.62
2022-10-17T05:53:29.425Z,13.60
2022-10-17T06:03:30.321Z,13.53
2022-10-17T06:08:29.223Z,13.54
2022-10-17T06:13:29.158Z,13.60
2022-10-17T06:18:29.102Z,13.72
2022-10-17T06:23:29.012Z,13.89
2022-10-17T06:28:29.073Z,14.00
2022-10-17T06:33:28.909Z,14.14
2022-10-17T06:38:28.797Z,14.22
2022-10-17T06:43:28.792Z,14.29
2022-10-17T06:48:28.673Z,14.37
2022-10-17T06:53:28.626Z,14.69
2022-10-17T06:58:28.605Z,15.02
2022-10-17T07:03:28.465Z,15.35
2022-10-17T07:08:28.409Z,15.72
2022-10-17T07:13:28.358Z,16.60
2022-10-17T07:18:28.276Z,18.25
2022-10-17T07:23:28.251Z,19.34
2022-10-17T07:28:28.202Z,20.06
2022-10-17T07:33:28.107Z,20.88
2022-10-17T07:38:28.025Z,20.72
2022-10-17T07:43:27.949Z,20.21
2022-10-17T07:48:27.990Z,20.48
2022-10-17T07:53:27.823Z,20.70
2022-10-17T07:58:27.727Z,20.82
2022-10-17T08:03:27.701Z,21.76
2022-10-17T08:14:18.014Z,22.47
2022-10-17T08:19:17.875Z,22.53
2022-10-17T08:24:17.823Z,22.84
2022-10-17T08:29:17.758Z,22.80
2022-10-17T08:34:17.685Z,23.24
2022-10-17T08:39:17.629Z,23.91
2022-10-17T08:44:17.530Z,24.05
2022-10-17T08:49:17.796Z,24.35
2022-10-17T08:54:17.415Z,24.18
2022-10-17T08:59:17.360Z,23.40
2022-10-17T09:04:17.429Z,22.54
2022-10-17T09:09:17.253Z,23.62
2022-10-17T09:14:17.129Z,23.65
2022-10-17T09:19:17.074Z,22.63
2022-10-17T09:24:17.018Z,22.15
2022-10-17T09:29:16.939Z,21.67
2022-10-17T09:34:16.876Z,24.08
2022-10-17T09:39:16.809Z,26.02
2022-10-17T09:44:16.739Z,23.34
2022-10-17T09:49:17.411Z,22.02
2022-10-17T09:54:16.726Z,23.50
2022-10-17T09:59:16.576Z,26.78
2022-10-17T10:04:16.477Z,26.13
2022-10-17T10:09:16.411Z,29.39
2022-10-17T10:14:16.333Z,27.65
2022-10-17T10:19:16.291Z,25.32
2022-10-17T10:24:16.206Z,24.23
2022-10-17T10:29:16.148Z,25.13
2022-10-17T10:34:16.074Z,26.81
2022-10-17T10:39:16.014Z,29.12
2022-10-17T10:44:15.991Z,26.92
2022-10-17T10:49:15.878Z,26.19
2022-10-17T10:54:15.825Z,27.39
2022-10-17T10:59:15.792Z,28.25
2022-10-17T11:04:15.668Z,27.73
2022-10-17T11:09:15.638Z,26.62
2022-10-17T11:14:15.541Z,26.23
2022-10-17T11:19:15.488Z,25.16
2022-10-17T11:24:15.409Z,24.63
2022-10-17T11:29:15.353Z,23.65
2022-10-17T11:34:15.283Z,23.65
2022-10-17T11:39:15.236Z,24.06
2022-10-17T11:44:15.146Z,22.94
2022-10-17T11:49:20.153Z,23.66
2022-10-17T11:54:16.021Z,25.40
2022-10-17T11:59:14.957Z,26.34
2022-10-17T12:04:14.915Z,26.60
2022-10-17T12:09:14.818Z,25.93
2022-10-17T12:14:14.749Z,25.11
2022-10-17T12:19:14.690Z,24.61
2022-10-17T12:24:18.810Z,24.65
2022-10-17T12:29:14.544Z,24.89
2022-10-17T12:34:14.476Z,24.38
2022-10-17T12:39:14.687Z,24.10
2022-10-17T12:44:14.693Z,24.08
2022-10-17T12:49:14.286Z,23.98
2022-10-17T12:54:14.230Z,23.41
2022-10-17T12:59:14.146Z,23.24
2022-10-17T13:04:14.080Z,23.20
2022-10-17T13:09:14.024Z,23.28
2022-10-17T13:14:14.681Z,23.50
2022-10-17T13:19:13.883Z,23.31
2022-10-17T13:24:13.812Z,23.47
2022-10-17T13:29:13.839Z,23.39
2022-10-17T13:34:13.685Z,23.34
2022-10-17T13:39:16.886Z,23.18
2022-10-17T13:44:13.562Z,23.09
2022-10-17T13:49:13.487Z,22.93
2022-10-17T13:54:13.403Z,22.83
2022-10-17T13:59:13.461Z,22.63
2022-10-17T14:04:19.763Z,22.73
2022-10-17T14:09:14.216Z,22.78
2022-10-17T14:14:13.118Z,22.73
2022-10-17T14:19:13.119Z,22.63
2022-10-17T14:24:13.020Z,22.48
2022-10-17T14:29:12.941Z,22.41
2022-10-17T14:34:12.884Z,22.44
2022-10-17T14:39:14.492Z,22.48
2022-10-17T14:44:12.732Z,22.50
2022-10-17T14:49:12.692Z,22.41
2022-10-17T14:54:12.612Z,22.17
2022-10-17T14:59:21.431Z,21.99
2022-10-17T15:04:13.615Z,21.89
2022-10-17T15:09:12.395Z,21.79
2022-10-17T15:14:12.334Z,21.73
2022-10-17T15:19:12.257Z,21.66
2022-10-17T15:24:12.289Z,21.51
2022-10-17T15:29:12.143Z,21.42
2022-10-17T15:34:12.060Z,21.36
2022-10-17T15:39:12.060Z,21.30
2022-10-17T15:44:12.130Z,21.15
2022-10-17T15:49:11.911Z,20.93
2022-10-17T15:59:11.753Z,20.60
2022-10-17T16:04:11.647Z,20.43
2022-10-17T16:09:11.581Z,20.28
2022-10-17T16:14:11.525Z,20.16
2022-10-17T16:19:11.475Z,20.09
2022-10-17T16:24:11.402Z,20.04
2022-10-17T16:29:11.383Z,20.00
2022-10-17T16:34:11.257Z,19.86
2022-10-17T16:39:11.202Z,19.77
2022-10-17T16:44:11.121Z,19.74
2022-10-17T16:49:11.045Z,19.69
2022-10-17T16:54:11.019Z,19.58
2022-10-17T16:59:10.899Z,19.54
2022-10-17T17:04:10.850Z,19.45
2022-10-17T17:09:10.805Z,19.33
2022-10-17T17:14:10.740Z,19.27
2022-10-17T17:19:10.659Z,19.24
2022-10-17T17:24:10.605Z,19.18
2022-10-17T17:29:10.560Z,19.16
2022-10-17T17:34:12.104Z,19.15
2022-10-17T17:39:11.425Z,19.12
2022-10-17T17:44:12.577Z,19.14
2022-10-17T17:49:11.280Z,19.09
2022-10-17T17:54:10.190Z,19.02
2022-10-17T17:59:10.112Z,19.08
2022-10-17T18:04:10.060Z,19.07
2022-10-17T18:09:10.004Z,19.02
2022-10-17T18:14:09.973Z,18.96
2022-10-17T18:19:09.945Z,18.92
2022-10-17T18:24:09.818Z,18.84
2022-10-17T18:29:09.733Z,18.75
2022-10-17T18:34:09.698Z,18.66
2022-10-17T18:39:09.573Z,18.60
2022-10-17T18:44:09.526Z,18.59
2022-10-17T18:49:09.473Z,18.60
2022-10-17T18:54:09.390Z,18.60
2022-10-17T18:59:09.341Z,18.60
2022-10-17T19:04:09.202Z,18.59
2022-10-17T19:09:09.157Z,18.56
2022-10-17T19:14:09.099Z,18.53
2022-10-17T19:19:09.012Z,18.45
2022-10-17T19:24:08.971Z,18.40
2022-10-17T19:29:08.991Z,18.31
2022-10-17T19:34:08.835Z,18.25
2022-10-17T19:39:08.754Z,18.22
2022-10-17T19:44:08.700Z,18.19
2022-10-17T19:49:08.610Z,18.15
2022-10-17T19:54:08.579Z,18.13
2022-10-17T19:59:08.503Z,18.11
2022-10-17T20:04:08.462Z,18.10
2022-10-17T20:09:11.009Z,18.04
2022-10-17T20:14:09.308Z,17.98
2022-10-17T20:19:08.249Z,17.89
2022-10-17T20:24:08.158Z,17.86
2022-10-17T20:29:08.099Z,17.79
2022-10-17T20:34:08.031Z,17.67
2022-10-17T20:39:07.971Z,17.60
2022-10-17T20:44:07.885Z,17.56
2022-10-17T20:49:07.802Z,17.52
2022-10-17T20:54:07.751Z,17.54
2022-10-17T20:59:07.682Z,17.59
2022-10-17T21:04:33.215Z,17.60
2022-10-17T21:09:08.570Z,17.60
2022-10-17T21:14:07.573Z,17.60
2022-10-17T21:19:07.432Z,17.64
2022-10-17T21:24:07.334Z,17.68
2022-10-17T21:29:07.290Z,17.67
2022-10-17T21:34:07.211Z,17.68
2022-10-17T21:44:07.090Z,17.54
2022-10-17T21:49:07.025Z,17.42
2022-10-17T21:54:06.897Z,17.38
2022-10-17T21:59:06.880Z,17.34
2022-10-17T22:04:06.876Z,17.33
2022-10-17T22:09:06.823Z,17.31
2022-10-17T22:14:06.667Z,17.30
2022-10-17T22:19:06.931Z,17.33
2022-10-17T22:24:06.563Z,17.29
2022-10-17T22:29:06.478Z,17.24
2022-10-17T22:34:06.387Z,17.26
2022-10-17T22:39:06.309Z,17.27
2022-10-17T22:44:06.298Z,17.27
2022-10-17T22:49:06.165Z,17.29
2022-10-17T22:54:06.128Z,17.29
2022-10-17T22:59:06.022Z,17.29
2022-10-17T23:04:05.985Z,17.29
2022-10-17T23:09:05.935Z,17.27
2022-10-17T23:14:05.841Z,17.27
2022-10-17T23:19:05.796Z,17.24
2022-10-17T23:24:05.697Z,17.27
2022-10-17T23:29:05.719Z,17.23
2022-10-17T23:34:05.565Z,17.20
2022-10-17T23:39:05.595Z,17.20
2022-10-17T23:44:05.431Z,17.19
2022-10-17T23:49:06.064Z,17.12
2022-10-17T23:54:05.287Z,17.14
2022-10-17T23:59:05.249Z,17.15
